Time,TemperatureF,DewpointF,PressureIn,WindDirection,WindDirectionDegrees,WindSpeedMPH,WindSpeedGustMPH,Humidity,HourlyPrecipIn,Conditions,Clouds,dailyrainin,SolarRadiationWatts/m^2,SoftwareType,DateUTC
2013-08-12 00:02:00,59.0,59.0,29.99,SW,220,0.0,1.0,100,0.00,,,0.00,0,Wunderground v.1.15,2013-08-12 05:02:00,
2013-08-12 00:12:00,58.9,58.9,29.99,SW,220,0.0,0.0,100,0.00,,,0.00,0,Wunderground v.1.15,2013-08-12 05:12:00,
2013-08-12 00:22:00,59.0,59.0,29.99,SW,220,0.0,0.0,100,0.00,,,0.00,0,Wunderground v.1.15,2013-08-12 05:22:00,
2013-08-12 00:32:00,59.3,59.3,29.99,SW,220,0.0,1.0,100,0.00,,,0.00,0,Wunderground v.1.15,2013-08-12 05:32:00,
2013-08-12 00:42:00,59.5,59.5,29.99,SW,220,0.0,0.0,100,0.00,,,0.00,0,Wunderground v.1.15,2013-08-12 05:42:00,
2013-08-12 00:52:00,57.8,57.8,29.99,SW,220,0.0,0.0,100,0.00,,,0.00,0,Wunderground v.1.15,2013-08-12 05:52:00,
2013-08-12 01:02:00,57.5,57.5,29.99,SW,220,0.0,0.0,100,0.00,,,0.00,0,Wunderground v.1.15,2013-08-12 06:02:00,
2013-08-12 01:12:00,56.9,56.9,29.99,SW,220,0.0,0.0,100,0.00,,,0.00,0,Wunderground v.1.15,2013-08-12 06:12:00,
2013-08-12 01:22:00,56.2,56.2,29.98,SW,220,0.0,0.0,100,0.00,,,0.00,0,Wunderground v.1.15,2013-08-12 06:22:00,
2013-08-12 01:32:00,56.5,56.5,29.98,SW,220,0.0,0.0,100,0.00,,,0.00,0,Wunderground v.1.15,2013-08-12 06:32:00,
2013-08-12 01:42:00,56.3,56.3,29.98,SW,220,0.0,2.0,100,0.00,,,0.00,0,Wunderground v.1.15,2013-08-12 06:42:00,
2013-08-12 01:52:00,56.2,56.2,29.98,SW,220,1.0,1.0,100,0.00,,,0.00,0,Wunderground v.1.15,2013-08-12 06:52:00,
2013-08-12 02:02:00,56.0,56.0,29.98,SW,220,0.0,0.0,100,0.00,,,0.00,0,Wunderground v.1.15,2013-08-12 07:02:00,
2013-08-12 02:12:00,56.2,56.2,29.97,SW,220,0.0,0.0,100,0.00,,,0.00,0,Wunderground v.1.15,2013-08-12 07:12:00,
2013-08-12 02:22:00,56.3,56.3,29.97,SW,220,0.0,0.0,100,0.00,,,0.00,0,Wunderground v.1.15,2013-08-12 07:22:00,
2013-08-12 02:32:00,56.5,56.5,29.97,SW,220,0.0,0.0,100,0.00,,,0.00,0,Wunderground v.1.15,2013-08-12 07:32:00,
2013-08-12 02:42:00,56.9,56.9,29.97,SW,220,0.0,0.0,100,0.00,,,0.00,0,Wunderground v.1.15,2013-08-12 07:42:00,
2013-08-12 02:52:00,56.7,56.7,29.97,SW,220,0.0,0.0,100,0.00,,,0.00,0,Wunderground v.1.15,2013-08-12 07:52:00,
2013-08-12 03:02:00,58.4,58.4,29.97,SW,220,1.0,1.0,100,0.00,,,0.00,0,Wunderground v.1.15,2013-08-12 08:02:00,
2013-08-12 03:12:00,59.2,59.2,29.97,SW,220,0.0,0.0,100,0.00,,,0.00,0,Wunderground v.1.15,2013-08-12 08:12:00,
2013-08-12 03:22:00,59.2,59.2,29.97,SW,220,0.0,0.0,100,0.00,,,0.00,0,Wunderground v.1.15,2013-08-12 08:22:00,
2013-08-12 03:32:00,59.5,59.5,29.97,SW,220,1.0,1.0,100,0.00,,,0.00,0,Wunderground v.1.15,2013-08-12 08:32:00,
2013-08-12 03:42:00,59.2,59.2,29.96,SW,220,0.0,0.0,100,0.00,,,0.00,0,Wunderground v.1.15,2013-08-12 08:42:00,
2013-08-12 03:52:00,58.9,58.9,29.96,SW,220,1.0,1.0,100,0.00,,,0.00,0,Wunderground v.1.15,2013-08-12 08:52:00,
2013-08-12 04:02:00,58.9,58.9,29.96,SW,220,0.0,0.0,100,0.00,,,0.00,0,Wunderground v.1.15,2013-08-12 09:02:00,
2013-08-12 04:12:00,58.9,58.9,29.96,SW,220,1.0,2.0,100,0.00,,,0.00,0,Wunderground v.1.15,2013-08-12 09:12:00,
2013-08-12 04:22:00,59.0,59.0,29.96,SW,220,2.0,2.0,100,0.00,,,0.00,0,Wunderground v.1.15,2013-08-12 09:22:00,
2013-08-12 04:32:00,58.7,58.7,29.96,SW,220,1.0,1.0,100,0.00,,,0.00,0,Wunderground v.1.15,2013-08-12 09:32:00,
2013-08-12 04:42:00,58.7,58.7,29.95,SW,220,0.0,2.0,100,0.00,,,0.00,0,Wunderground v.1.15,2013-08-12 09:42:00,
2013-08-12 04:52:00,59.2,59.2,29.96,SW,220,1.0,1.0,100,0.00,,,0.00,0,Wunderground v.1.15,2013-08-12 09:52:00,
2013-08-12 05:02:00,59.3,59.3,29.96,SW,220,0.0,0.0,100,0.00,,,0.00,0,Wunderground v.1.15,2013-08-12 10:02:00,
2013-08-12 05:12:00,59.5,59.5,29.95,SW,220,0.0,0.0,100,0.00,,,0.00,0,Wunderground v.1.15,2013-08-12 10:12:00,
2013-08-12 05:22:00,59.5,59.5,29.94,SW,220,1.0,1.0,100,0.00,,,0.00,0,Wunderground v.1.15,2013-08-12 10:22:00,
2013-08-12 05:32:00,59.3,59.3,29.94,SW,220,1.0,1.0,100,0.00,,,0.00,0,Wunderground v.1.15,2013-08-12 10:32:00,
2013-08-12 05:42:00,59.5,59.5,29.94,SW,220,3.0,3.0,100,0.00,,,0.00,0,Wunderground v.1.15,2013-08-12 10:42:00,
2013-08-12 05:52:00,59.2,59.2,29.95,SW,220,2.0,2.0,100,0.00,,,0.00,0,Wunderground v.1.15,2013-08-12 10:52:00,
2013-08-12 06:03:00,59.2,59.2,29.95,SW,220,1.0,1.0,100,0.00,,,0.00,0,Wunderground v.1.15,2013-08-12 11:03:00,
2013-08-12 06:12:00,59.3,59.3,29.94,SW,220,0.0,1.0,100,0.00,,,0.00,9,Wunderground v.1.15,2013-08-12 11:12:00,
2013-08-12 06:22:00,59.5,59.5,29.94,SW,222,0.0,0.0,100,0.00,,,0.00,19,Wunderground v.1.15,2013-08-12 11:22:00,
2013-08-12 06:42:00,59.6,59.6,29.94,SW,220,2.0,3.0,100,0.00,,,0.00,33,Wunderground v.1.15,2013-08-12 11:42:00,
2013-08-12 06:52:00,59.6,59.6,29.94,SW,220,2.0,3.0,100,0.00,,,0.00,48,Wunderground v.1.15,2013-08-12 11:52:00,
2013-08-12 07:02:00,59.8,59.8,29.94,SW,220,1.0,1.0,100,0.00,,,0.00,81,Wunderground v.1.15,2013-08-12 12:02:00,
2013-08-12 07:12:00,59.9,59.9,29.94,SW,220,1.0,2.0,100,0.00,,,0.00,84,Wunderground v.1.15,2013-08-12 12:12:00,
2013-08-12 07:22:00,60.1,60.1,29.95,SW,220,1.0,1.0,100,0.00,,,0.00,74,Wunderground v.1.15,2013-08-12 12:22:00,
2013-08-12 07:32:00,60.2,60.2,29.95,SW,220,1.0,1.0,100,0.00,,,0.00,86,Wunderground v.1.15,2013-08-12 12:32:00,
2013-08-12 07:42:00,60.7,60.7,29.94,SW,220,1.0,2.0,100,0.00,,,0.00,150,Wunderground v.1.15,2013-08-12 12:42:00,
2013-08-12 07:52:00,61.2,61.2,29.94,SW,220,0.0,0.0,100,0.00,,,0.00,102,Wunderground v.1.15,2013-08-12 12:52:00,
2013-08-12 08:02:00,61.5,61.5,29.94,SW,220,1.0,2.0,100,0.00,,,0.00,201,Wunderground v.1.15,2013-08-12 13:02:00,
2013-08-12 08:12:00,62.0,62.0,29.93,ESE,109,1.0,1.0,100,0.00,,,0.00,155,Wunderground v.1.15,2013-08-12 13:12:00,
2013-08-12 08:22:00,62.4,62.4,29.93,SSW,195,1.0,1.0,100,0.00,,,0.00,167,Wunderground v.1.15,2013-08-12 13:22:00,
2013-08-12 08:32:00,62.7,62.7,29.93,SSW,195,1.0,1.0,100,0.00,,,0.00,255,Wunderground v.1.15,2013-08-12 13:32:00,
2013-08-12 08:42:00,63.1,63.1,29.93,SSW,196,1.0,2.0,100,0.00,,,0.00,287,Wunderground v.1.15,2013-08-12 13:42:00,
2013-08-12 08:52:00,63.9,63.9,29.93,SSW,208,1.0,1.0,100,0.00,,,0.00,340,Wunderground v.1.15,2013-08-12 13:52:00,
2013-08-12 09:02:00,64.0,64.0,29.93,SSW,208,1.0,3.0,100,0.00,,,0.00,243,Wunderground v.1.15,2013-08-12 14:02:00,
2013-08-12 09:12:00,64.5,64.5,29.92,WSW,258,3.0,3.0,100,0.00,,,0.00,517,Wunderground v.1.15,2013-08-12 14:12:00,
2013-08-12 09:22:00,65.3,65.3,29.92,SW,215,3.0,3.0,100,0.00,,,0.00,635,Wunderground v.1.15,2013-08-12 14:22:00,
2013-08-12 09:32:00,65.8,65.8,29.92,WNW,295,4.0,4.0,100,0.00,,,0.00,669,Wunderground v.1.15,2013-08-12 14:32:00,
2013-08-12 09:42:00,66.4,66.4,29.92,SW,216,3.0,3.0,100,0.00,,,0.00,419,Wunderground v.1.15,2013-08-12 14:42:00,
2013-08-12 09:52:00,67.4,67.4,29.91,SW,222,3.0,5.0,100,0.00,,,0.00,429,Wunderground v.1.15,2013-08-12 14:52:00,
2013-08-12 10:02:00,68.1,66.3,29.91,SW,234,2.0,5.0,94,0.00,,,0.00,280,Wunderground v.1.15,2013-08-12 15:02:00,
2013-08-12 10:12:00,68.4,65.4,29.91,WSW,239,2.0,2.0,90,0.00,,,0.00,255,Wunderground v.1.15,2013-08-12 15:12:00,
2013-08-12 10:22:00,68.8,64.8,29.91,WSW,253,3.0,3.0,87,0.00,,,0.00,241,Wunderground v.1.15,2013-08-12 15:22:00,
2013-08-12 10:32:00,69.1,65.1,29.91,WSW,257,2.0,2.0,87,0.00,,,0.00,285,Wunderground v.1.15,2013-08-12 15:32:00,
2013-08-12 10:42:00,69.6,65.2,29.91,WSW,256,3.0,3.0,86,0.00,,,0.00,392,Wunderground v.1.15,2013-08-12 15:42:00,
2013-08-12 10:52:00,70.4,65.3,29.91,WNW,287,3.0,3.0,84,0.00,,,0.00,466,Wunderground v.1.15,2013-08-12 15:52:00,
2013-08-12 11:02:00,71.5,65.7,29.91,West,271,2.0,3.0,82,0.00,,,0.00,334,Wunderground v.1.15,2013-08-12 16:02:00,
2013-08-12 11:12:00,72.1,65.6,29.90,West,280,4.0,4.0,80,0.00,,,0.00,811,Wunderground v.1.15,2013-08-12 16:12:00,
2013-08-12 11:22:00,72.5,65.6,29.91,WNW,291,4.0,4.0,79,0.00,,,0.00,533,Wunderground v.1.15,2013-08-12 16:22:00,
2013-08-12 11:32:00,72.7,65.1,29.91,SW,226,4.0,6.0,77,0.00,,,0.00,584,Wunderground v.1.15,2013-08-12 16:32:00,
2013-08-12 11:42:00,73.2,66.3,29.90,SW,232,3.0,4.0,79,0.00,,,0.00,720,Wunderground v.1.15,2013-08-12 16:42:00,
2013-08-12 11:52:00,74.0,64.0,29.89,SSW,213,3.0,3.0,71,0.00,,,0.00,764,Wunderground v.1.15,2013-08-12 16:52:00,
2013-08-12 12:02:00,74.2,62.5,29.89,West,271,5.0,5.0,67,0.00,,,0.00,352,Wunderground v.1.15,2013-08-12 17:02:00,
2013-08-12 12:12:00,74.2,63.0,29.89,NW,323,5.0,7.0,68,0.00,,,0.00,338,Wunderground v.1.15,2013-08-12 17:12:00,
2013-08-12 12:22:00,74.2,65.8,29.89,NNW,333,5.0,7.0,75,0.00,,,0.00,380,Wunderground v.1.15,2013-08-12 17:22:00,
2013-08-12 12:32:00,73.9,62.7,29.89,West,271,5.0,5.0,68,0.00,,,0.00,561,Wunderground v.1.15,2013-08-12 17:32:00,
2013-08-12 12:42:00,73.9,60.5,29.89,NW,308,5.0,5.0,63,0.00,,,0.00,331,Wunderground v.1.15,2013-08-12 17:42:00,
2013-08-12 12:52:00,73.7,61.2,29.89,NNW,336,4.0,5.0,65,0.00,,,0.00,392,Wunderground v.1.15,2013-08-12 17:52:00,
2013-08-12 13:02:00,73.9,61.4,29.89,NNW,328,6.0,6.0,65,0.00,,,0.00,535,Wunderground v.1.15,2013-08-12 18:02:00,
2013-08-12 13:12:00,74.4,61.9,29.89,North,353,5.0,7.0,65,0.00,,,0.00,871,Wunderground v.1.15,2013-08-12 18:12:00,
2013-08-12 13:22:00,74.2,62.1,29.89,NNW,335,7.0,7.0,66,0.00,,,0.00,832,Wunderground v.1.15,2013-08-12 18:22:00,
2013-08-12 13:32:00,74.4,59.6,29.89,NNW,340,6.0,6.0,60,0.00,,,0.00,947,Wunderground v.1.15,2013-08-12 18:32:00,
2013-08-12 13:42:00,73.9,61.0,29.89,NNW,346,5.0,7.0,64,0.00,,,0.00,871,Wunderground v.1.15,2013-08-12 18:42:00,
2013-08-12 13:52:00,74.6,61.2,29.89,NNW,346,5.0,5.0,63,0.00,,,0.00,322,Wunderground v.1.15,2013-08-12 18:52:00,
2013-08-12 14:02:00,73.7,61.2,29.89,North,357,4.0,5.0,65,0.00,,,0.00,322,Wunderground v.1.15,2013-08-12 19:02:00,
2013-08-12 14:12:00,73.9,62.2,29.88,North,349,5.0,6.0,67,0.00,,,0.00,927,Wunderground v.1.15,2013-08-12 19:12:00,
2013-08-12 14:22:00,74.2,62.5,29.88,North,357,5.0,5.0,67,0.00,,,0.00,737,Wunderground v.1.15,2013-08-12 19:22:00,
2013-08-12 14:32:00,74.2,61.2,29.88,ENE,69,2.0,2.0,64,0.00,,,0.00,735,Wunderground v.1.15,2013-08-12 19:32:00,
2013-08-12 14:42:00,74.7,60.8,29.86,WNW,288,3.0,3.0,62,0.00,,,0.00,735,Wunderground v.1.15,2013-08-12 19:42:00,
2013-08-12 14:52:00,75.8,61.4,29.86,NW,319,3.0,7.0,61,0.00,,,0.00,743,Wunderground v.1.15,2013-08-12 19:52:00,
2013-08-12 15:02:00,76.3,60.9,29.86,SW,223,5.0,5.0,59,0.00,,,0.00,809,Wunderground v.1.15,2013-08-12 20:02:00,
2013-08-12 15:12:00,76.7,61.3,29.86,West,280,3.0,3.0,59,0.00,,,0.00,892,Wunderground v.1.15,2013-08-12 20:12:00,
2013-08-12 15:22:00,77.0,62.0,29.86,NNW,340,4.0,4.0,60,0.00,,,0.00,827,Wunderground v.1.15,2013-08-12 20:22:00,
2013-08-12 15:32:00,76.1,61.2,29.86,WNW,302,4.0,4.0,60,0.00,,,0.00,672,Wunderground v.1.15,2013-08-12 20:32:00,
2013-08-12 15:42:00,76.1,58.8,29.85,WNW,295,5.0,5.0,55,0.00,,,0.00,706,Wunderground v.1.15,2013-08-12 20:42:00,
2013-08-12 15:52:00,76.3,58.9,29.85,NNW,328,4.0,4.0,55,0.00,,,0.00,640,Wunderground v.1.15,2013-08-12 20:52:00,
2013-08-12 16:02:00,76.7,60.8,29.85,WNW,298,4.0,7.0,58,0.00,,,0.00,572,Wunderground v.1.15,2013-08-12 21:02:00,
2013-08-12 16:12:00,76.1,59.3,29.84,West,281,4.0,4.0,56,0.00,,,0.00,577,Wunderground v.1.15,2013-08-12 21:12:00,
2013-08-12 16:22:00,76.3,57.4,29.85,NW,318,6.0,7.0,52,0.00,,,0.00,547,Wunderground v.1.15,2013-08-12 21:22:00,
2013-08-12 16:32:00,76.3,59.4,29.85,WNW,301,5.0,5.0,56,0.00,,,0.00,531,Wunderground v.1.15,2013-08-12 21:32:00,
2013-08-12 16:42:00,74.7,58.5,29.85,North,0,8.0,8.0,57,0.00,,,0.00,72,Wunderground v.1.15,2013-08-12 21:42:00,
2013-08-12 16:52:00,69.6,56.9,29.88,North,359,11.0,11.0,64,0.00,,,0.00,51,Wunderground v.1.15,2013-08-12 21:52:00,
2013-08-12 17:02:00,65.8,59.5,29.88,NNE,20,9.0,9.0,80,0.00,,,0.00,67,Wunderground v.1.15,2013-08-12 22:02:00,
2013-08-12 17:12:00,63.9,59.3,29.88,NNE,31,5.0,5.0,85,0.00,,,0.00,74,Wunderground v.1.15,2013-08-12 22:12:00,
2013-08-12 17:22:00,63.5,59.6,29.88,NE,34,4.0,6.0,87,0.00,,,0.00,90,Wunderground v.1.15,2013-08-12 22:22:00,
2013-08-12 17:32:00,64.3,61.0,29.88,NE,38,5.0,5.0,89,0.00,,,0.00,486,Wunderground v.1.15,2013-08-12 22:32:00,
2013-08-12 17:42:00,65.8,60.5,29.88,NE,55,6.0,6.0,83,0.00,,,0.00,417,Wunderground v.1.15,2013-08-12 22:42:00,
2013-08-12 17:52:00,66.3,60.3,29.89,ENE,58,7.0,9.0,81,0.00,,,0.00,257,Wunderground v.1.15,2013-08-12 22:52:00,
2013-08-12 18:02:00,66.0,60.7,29.89,NE,56,6.0,11.0,83,0.00,,,0.00,285,Wunderground v.1.15,2013-08-12 23:02:00,
2013-08-12 18:12:00,65.0,59.7,29.89,NE,37,9.0,11.0,83,0.00,,,0.00,239,Wunderground v.1.15,2013-08-12 23:12:00,
2013-08-12 18:22:00,64.8,59.5,29.90,NE,40,10.0,10.0,83,0.00,,,0.00,187,Wunderground v.1.15,2013-08-12 23:22:00,
2013-08-12 18:32:00,64.7,59.8,29.90,NE,52,9.0,10.0,84,0.00,,,0.00,160,Wunderground v.1.15,2013-08-12 23:32:00,
2013-08-12 18:42:00,64.5,60.2,29.90,North,7,7.0,7.0,86,0.00,,,0.00,51,Wunderground v.1.15,2013-08-12 23:42:00,
2013-08-12 18:52:00,64.3,59.7,29.91,NNE,32,9.0,13.0,85,0.00,,,0.00,62,Wunderground v.1.15,2013-08-12 23:52:00,
2013-08-12 19:02:00,63.9,59.0,29.91,NE,56,11.0,14.0,84,0.00,,,0.00,90,Wunderground v.1.15,2013-08-13 00:02:00,
2013-08-12 19:12:00,63.1,57.9,29.91,NNE,27,11.0,11.0,83,0.00,,,0.00,32,Wunderground v.1.15,2013-08-13 00:12:00,
2013-08-12 19:22:00,62.0,57.1,29.92,NE,37,8.0,8.0,84,0.00,,,0.00,44,Wunderground v.1.15,2013-08-13 00:22:00,
2013-08-12 19:32:00,61.2,56.7,29.92,NNE,18,8.0,8.0,85,0.00,,,0.00,25,Wunderground v.1.15,2013-08-13 00:32:00,
2013-08-12 19:42:00,60.4,55.5,29.93,NNE,24,11.0,14.0,84,0.00,,,0.00,12,Wunderground v.1.15,2013-08-13 00:42:00,
2013-08-12 19:52:00,59.9,55.4,29.93,NNE,27,11.0,11.0,85,0.00,,,0.00,7,Wunderground v.1.15,2013-08-13 00:52:00,
2013-08-12 20:12:00,59.2,53.0,29.94,NNE,32,10.0,11.0,80,0.00,,,0.00,0,Wunderground v.1.15,2013-08-13 01:12:00,
2013-08-12 20:22:00,58.9,51.7,29.95,North,4,11.0,11.0,77,0.00,,,0.00,0,Wunderground v.1.15,2013-08-13 01:22:00,
2013-08-12 20:32:00,58.6,50.7,29.95,NNE,32,9.0,13.0,75,0.00,,,0.00,0,Wunderground v.1.15,2013-08-13 01:32:00,
2013-08-12 20:42:00,58.1,49.9,29.96,NNE,21,8.0,8.0,74,0.00,,,0.00,0,Wunderground v.1.15,2013-08-13 01:42:00,
2013-08-12 20:52:00,58.0,49.8,29.97,NE,51,8.0,8.0,74,0.00,,,0.00,0,Wunderground v.1.15,2013-08-13 01:52:00,
2013-08-12 21:02:00,57.6,49.7,29.97,North,7,7.0,7.0,75,0.00,,,0.00,0,Wunderground v.1.15,2013-08-13 02:02:00,
2013-08-12 21:12:00,57.3,49.8,29.97,NNE,24,6.0,8.0,76,0.00,,,0.00,0,Wunderground v.1.15,2013-08-13 02:12:00,
2013-08-12 21:22:00,57.0,48.8,29.98,North,7,6.0,6.0,74,0.00,,,0.00,0,Wunderground v.1.15,2013-08-13 02:22:00,
2013-08-12 21:32:00,57.2,47.9,29.98,North,349,8.0,8.0,71,0.00,,,0.00,0,Wunderground v.1.15,2013-08-13 02:32:00,
2013-08-12 21:42:00,57.0,47.3,29.98,North,0,6.0,7.0,70,0.00,,,0.00,0,Wunderground v.1.15,2013-08-13 02:42:00,
2013-08-12 21:52:00,56.9,47.2,29.98,NNE,20,6.0,9.0,70,0.00,,,0.00,0,Wunderground v.1.15,2013-08-13 02:52:00,
2013-08-12 22:02:00,56.6,47.3,29.98,NNE,20,5.0,5.0,71,0.00,,,0.00,0,Wunderground v.1.15,2013-08-13 03:02:00,
2013-08-12 22:12:00,56.2,47.3,29.99,North,6,4.0,4.0,72,0.00,,,0.00,0,Wunderground v.1.15,2013-08-13 03:12:00,
2013-08-12 22:22:00,55.9,47.7,29.99,NNE,31,3.0,3.0,74,0.00,,,0.00,0,Wunderground v.1.15,2013-08-13 03:22:00,
2013-08-12 22:32:00,55.3,47.5,29.99,NNE,20,2.0,6.0,75,0.00,,,0.00,0,Wunderground v.1.15,2013-08-13 03:32:00,
2013-08-12 22:42:00,55.1,47.3,29.99,NNE,28,4.0,4.0,75,0.00,,,0.00,0,Wunderground v.1.15,2013-08-13 03:42:00,
2013-08-12 23:12:00,54.2,46.8,29.99,North,11,1.0,1.0,76,0.00,,,0.00,0,Wunderground v.1.15,2013-08-13 04:12:00,
2013-08-12 23:22:00,53.8,46.8,29.99,NNE,18,1.0,1.0,77,0.00,,,0.00,0,Wunderground v.1.15,2013-08-13 04:22:00,
2013-08-12 23:32:00,53.5,46.5,29.99,NNE,18,2.0,2.0,77,0.00,,,0.00,0,Wunderground v.1.15,2013-08-13 04:32:00,
2013-08-12 23:42:00,53.2,46.5,30.00,NNE,18,2.0,2.0,78,0.00,,,0.00,0,Wunderground v.1.15,2013-08-13 04:42:00,
2013-08-12 23:52:00,52.9,46.6,30.00,NNE,18,2.0,2.0,79,0.00,,,0.00,0,Wunderground v.1.15,2013-08-13 04:52:00,